sensor_id;sensor_type;location;lat;lon;timestamp;P1;durP1;ratioP1;P2;durP2;ratioP2
33501;SDS011;22396;51.070;4.974;2023-04-19T11:35:10;10.38;;;3.78;;
33501;SDS011;22396;51.070;4.974;2023-04-19T11:37:41;6.68;;;3.30;;
33501;SDS011;22396;51.070;4.974;2023-04-19T11:40:14;7.78;;;3.65;;
33501;SDS011;22396;51.070;4.974;2023-04-19T11:42:40;9.98;;;3.92;;
33501;SDS011;22396;51.070;4.974;2023-04-19T11:45:32;7.28;;;4.07;;
33501;SDS011;22396;51.070;4.974;2023-04-19T11:48:07;6.63;;;2.00;;
33501;SDS011;22396;51.070;4.974;2023-04-19T11:51:01;6.97;;;3.75;;
33501;SDS011;22396;51.070;4.974;2023-04-19T11:53:33;9.07;;;4.85;;
33501;SDS011;22396;51.070;4.974;2023-04-19T11:56:07;7.45;;;3.92;;
33501;SDS011;22396;51.070;4.974;2023-04-19T12:04:10;7.80;;;3.25;;
33501;SDS011;22396;51.070;4.974;2023-04-19T12:09:25;7.40;;;4.15;;
33501;SDS011;22396;51.070;4.974;2023-04-19T12:14:33;5.20;;;3.10;;
33501;SDS011;22396;51.070;4.974;2023-04-19T12:17:17;8.85;;;3.50;;
33501;SDS011;22396;51.070;4.974;2023-04-19T12:23:05;4.70;;;2.45;;
33501;SDS011;22396;51.070;4.974;2023-04-19T12:26:01;4.55;;;2.78;;
33501;SDS011;22396;51.070;4.974;2023-04-19T12:28:33;8.55;;;3.20;;
33501;SDS011;22396;51.070;4.974;2023-04-19T12:35:08;3.72;;;2.10;;
33501;SDS011;22396;51.070;4.974;2023-04-19T12:37:53;3.53;;;1.80;;
33501;SDS011;22396;51.070;4.974;2023-04-19T12:45:53;4.78;;;2.08;;
33501;SDS011;22396;51.070;4.974;2023-04-19T12:57:39;4.78;;;1.25;;
33501;SDS011;22396;51.070;4.974;2023-04-19T13:00:24;2.95;;;1.40;;
33501;SDS011;22396;51.070;4.974;2023-04-19T13:03:12;5.90;;;1.38;;
33501;SDS011;22396;51.070;4.974;2023-04-19T13:12:10;4.57;;;1.50;;
33501;SDS011;22396;51.070;4.974;2023-04-19T13:15:00;3.30;;;1.67;;
33501;SDS011;22396;51.070;4.974;2023-04-19T13:17:34;2.80;;;1.40;;
33501;SDS011;22396;51.070;4.974;2023-04-19T13:20:27;6.85;;;1.77;;
33501;SDS011;22396;51.070;4.974;2023-04-19T13:22:59;3.30;;;1.48;;
33501;SDS011;22396;51.070;4.974;2023-04-19T13:25:48;4.05;;;1.90;;
33501;SDS011;22396;51.070;4.974;2023-04-19T13:31:16;3.55;;;1.70;;
33501;SDS011;22396;51.070;4.974;2023-04-19T13:33:51;5.53;;;1.70;;
33501;SDS011;22396;51.070;4.974;2023-04-19T13:36:23;2.95;;;1.90;;
33501;SDS011;22396;51.070;4.974;2023-04-19T13:39:39;7.45;;;1.75;;
33501;SDS011;22396;51.070;4.974;2023-04-19T13:42:29;4.28;;;1.70;;
33501;SDS011;22396;51.070;4.974;2023-04-19T13:45:16;3.85;;;1.95;;
33501;SDS011;22396;51.070;4.974;2023-04-19T13:47:57;4.55;;;1.40;;
33501;SDS011;22396;51.070;4.974;2023-04-19T13:51:02;6.35;;;1.85;;
33501;SDS011;22396;51.070;4.974;2023-04-19T13:53:49;5.32;;;1.50;;
33501;SDS011;22396;51.070;4.974;2023-04-19T13:56:17;8.38;;;1.98;;
33501;SDS011;22396;51.070;4.974;2023-04-19T13:58:53;5.00;;;1.80;;
33501;SDS011;22396;51.070;4.974;2023-04-19T14:01:21;5.53;;;2.05;;
33501;SDS011;22396;51.070;4.974;2023-04-19T14:04:12;6.88;;;2.10;;
33501;SDS011;22396;51.070;4.974;2023-04-19T14:06:58;5.45;;;1.58;;
33501;SDS011;22396;51.070;4.974;2023-04-19T14:09:55;5.22;;;1.92;;
33501;SDS011;22396;51.070;4.974;2023-04-19T14:12:34;3.40;;;1.75;;
33501;SDS011;22396;51.070;4.974;2023-04-19T14:14:59;2.95;;;1.65;;
33501;SDS011;22396;51.070;4.974;2023-04-19T14:17:27;4.82;;;1.70;;
33501;SDS011;22396;51.070;4.974;2023-04-19T14:19:55;5.15;;;1.60;;
33501;SDS011;22396;51.070;4.974;2023-04-19T14:25:22;2.75;;;1.48;;
33501;SDS011;22396;51.070;4.974;2023-04-19T14:27:49;3.65;;;1.67;;
33501;SDS011;22396;51.070;4.974;2023-04-19T14:30:20;2.90;;;1.70;;
33501;SDS011;22396;51.070;4.974;2023-04-19T14:32:50;8.45;;;1.38;;
33501;SDS011;22396;51.070;4.974;2023-04-19T14:38:40;4.72;;;1.50;;
33501;SDS011;22396;51.070;4.974;2023-04-19T14:41:34;6.13;;;1.88;;
33501;SDS011;22396;51.070;4.974;2023-04-19T14:49:50;1.02;;;0.63;;
33501;SDS011;22396;51.070;4.974;2023-04-19T14:52:25;4.32;;;1.80;;
33501;SDS011;22396;51.070;4.974;2023-04-19T14:57:31;6.55;;;1.83;;
33501;SDS011;22396;51.070;4.974;2023-04-19T15:00:03;1.98;;;1.40;;
33501;SDS011;22396;51.070;4.974;2023-04-19T15:02:34;5.70;;;1.60;;
33501;SDS011;22396;51.070;4.974;2023-04-19T15:05:11;7.82;;;1.45;;
33501;SDS011;22396;51.070;4.974;2023-04-19T15:07:48;3.95;;;1.83;;
33501;SDS011;22396;51.070;4.974;2023-04-19T15:10:58;2.28;;;1.58;;
33501;SDS011;22396;51.070;4.974;2023-04-19T15:13:12;4.22;;;1.95;;
33501;SDS011;22396;51.070;4.974;2023-04-19T15:23:27;2.83;;;1.50;;
33501;SDS011;22396;51.070;4.974;2023-04-19T15:25:58;6.90;;;2.28;;
33501;SDS011;22396;51.070;4.974;2023-04-19T15:28:25;4.18;;;2.30;;
33501;SDS011;22396;51.070;4.974;2023-04-19T15:30:57;3.25;;;2.05;;
33501;SDS011;22396;51.070;4.974;2023-04-19T15:33:33;5.72;;;1.95;;
33501;SDS011;22396;51.070;4.974;2023-04-19T15:35:59;4.53;;;2.50;;
33501;SDS011;22396;51.070;4.974;2023-04-19T15:41:34;3.22;;;2.10;;
33501;SDS011;22396;51.070;4.974;2023-04-19T15:43:59;2.60;;;1.80;;
33501;SDS011;22396;51.070;4.974;2023-04-19T15:46:25;4.05;;;2.28;;
33501;SDS011;22396;51.070;4.974;2023-04-19T15:48:56;7.38;;;2.30;;
33501;SDS011;22396;51.070;4.974;2023-04-19T15:51:24;5.38;;;2.22;;
33501;SDS011;22396;51.070;4.974;2023-04-19T15:53:52;4.15;;;2.10;;
33501;SDS011;22396;51.070;4.974;2023-04-19T15:56:21;3.85;;;2.25;;
33501;SDS011;22396;51.070;4.974;2023-04-19T15:59:05;3.50;;;1.90;;
33501;SDS011;22396;51.070;4.974;2023-04-19T16:01:31;6.68;;;2.10;;
33501;SDS011;22396;51.070;4.974;2023-04-19T16:03:57;9.25;;;2.50;;
33501;SDS011;22396;51.070;4.974;2023-04-19T16:06:35;4.57;;;2.15;;
33501;SDS011;22396;51.070;4.974;2023-04-19T16:09:06;6.70;;;2.03;;
33501;SDS011;22396;51.070;4.974;2023-04-19T16:14:24;5.63;;;2.53;;
33501;SDS011;22396;51.070;4.974;2023-04-19T16:17:28;3.58;;;2.10;;
33501;SDS011;22396;51.070;4.974;2023-04-19T16:20:23;9.10;;;2.47;;
33501;SDS011;22396;51.070;4.974;2023-04-19T16:22:48;3.28;;;2.47;;
33501;SDS011;22396;51.070;4.974;2023-04-19T16:25:18;3.95;;;2.55;;
33501;SDS011;22396;51.070;4.974;2023-04-19T16:27:44;5.07;;;2.60;;
33501;SDS011;22396;51.070;4.974;2023-04-19T16:30:10;4.43;;;2.78;;
33501;SDS011;22396;51.070;4.974;2023-04-19T16:32:35;8.32;;;2.58;;
33501;SDS011;22396;51.070;4.974;2023-04-19T16:35:02;5.90;;;2.85;;
33501;SDS011;22396;51.070;4.974;2023-04-19T16:37:48;4.03;;;2.70;;
33501;SDS011;22396;51.070;4.974;2023-04-19T16:40:19;13.18;;;2.92;;
33501;SDS011;22396;51.070;4.974;2023-04-19T16:43:14;8.35;;;2.65;;
33501;SDS011;22396;51.070;4.974;2023-04-19T16:45:39;5.40;;;2.55;;
33501;SDS011;22396;51.070;4.974;2023-04-19T16:48:06;4.32;;;2.38;;
33501;SDS011;22396;51.070;4.974;2023-04-19T16:50:41;5.57;;;2.38;;
33501;SDS011;22396;51.070;4.974;2023-04-19T16:53:17;4.10;;;2.40;;
33501;SDS011;22396;51.070;4.974;2023-04-19T16:55:45;10.65;;;2.78;;
33501;SDS011;22396;51.070;4.974;2023-04-19T17:04:25;4.20;;;2.28;;
33501;SDS011;22396;51.070;4.974;2023-04-19T17:07:00;7.05;;;2.28;;
33501;SDS011;22396;51.070;4.974;2023-04-19T17:09:35;8.45;;;3.67;;
33501;SDS011;22396;51.070;4.974;2023-04-19T17:12:29;5.45;;;2.72;;
33501;SDS011;22396;51.070;4.974;2023-04-19T17:18:05;7.32;;;2.03;;
33501;SDS011;22396;51.070;4.974;2023-04-19T17:20:48;4.82;;;2.13;;
33501;SDS011;22396;51.070;4.974;2023-04-19T17:23:22;11.38;;;2.50;;
33501;SDS011;22396;51.070;4.974;2023-04-19T17:26:18;4.60;;;2.42;;
33501;SDS011;22396;51.070;4.974;2023-04-19T17:28:59;8.80;;;2.72;;
33501;SDS011;22396;51.070;4.974;2023-04-19T17:37:49;5.03;;;1.88;;
33501;SDS011;22396;51.070;4.974;2023-04-19T17:40:51;6.00;;;1.92;;
